sensor_id;sensor_type;location;lat;lon;timestamp;P1;durP1;ratioP1;P2;durP2;ratioP2
60847;SDS011;46681;47.696;9.140;2023-05-07T00:00:40;2.17;;;2.03;;
60847;SDS011;46681;47.696;9.140;2023-05-07T00:03:19;2.13;;;2.03;;
60847;SDS011;46681;47.696;9.140;2023-05-07T00:05:48;3.27;;;2.33;;
60847;SDS011;46681;47.696;9.140;2023-05-07T00:08:26;1.90;;;1.80;;
60847;SDS011;46681;47.696;9.140;2023-05-07T00:10:57;1.53;;;1.43;;
60847;SDS011;46681;47.696;9.140;2023-05-07T00:13:46;2.10;;;1.97;;
60847;SDS011;46681;47.696;9.140;2023-05-07T00:16:15;2.10;;;1.90;;
60847;SDS011;46681;47.696;9.140;2023-05-07T00:18:40;2.10;;;1.90;;
60847;SDS011;46681;47.696;9.140;2023-05-07T00:21:08;1.90;;;1.80;;
60847;SDS011;46681;47.696;9.140;2023-05-07T00:23:38;2.10;;;1.90;;
60847;SDS011;46681;47.696;9.140;2023-05-07T00:26:06;2.10;;;1.90;;
60847;SDS011;46681;47.696;9.140;2023-05-07T00:28:34;1.90;;;1.80;;
60847;SDS011;46681;47.696;9.140;2023-05-07T00:31:03;2.03;;;1.80;;
60847;SDS011;46681;47.696;9.140;2023-05-07T00:33:31;1.90;;;1.80;;
60847;SDS011;46681;47.696;9.140;2023-05-07T00:36:06;2.23;;;1.70;;
60847;SDS011;46681;47.696;9.140;2023-05-07T00:38:34;2.70;;;2.03;;
60847;SDS011;46681;47.696;9.140;2023-05-07T00:41:07;2.20;;;2.00;;
60847;SDS011;46681;47.696;9.140;2023-05-07T00:43:36;1.80;;;1.70;;
60847;SDS011;46681;47.696;9.140;2023-05-07T00:46:03;1.90;;;1.80;;
60847;SDS011;46681;47.696;9.140;2023-05-07T00:48:31;2.60;;;1.63;;
60847;SDS011;46681;47.696;9.140;2023-05-07T00:50:57;1.80;;;1.70;;
60847;SDS011;46681;47.696;9.140;2023-05-07T00:53:26;2.90;;;2.10;;
60847;SDS011;46681;47.696;9.140;2023-05-07T00:56:08;2.30;;;1.70;;
60847;SDS011;46681;47.696;9.140;2023-05-07T00:58:34;1.80;;;1.70;;
60847;SDS011;46681;47.696;9.140;2023-05-07T01:01:08;3.03;;;2.07;;
60847;SDS011;46681;47.696;9.140;2023-05-07T01:03:34;1.80;;;1.70;;
60847;SDS011;46681;47.696;9.140;2023-05-07T01:06:00;1.93;;;1.73;;
60847;SDS011;46681;47.696;9.140;2023-05-07T01:08:38;1.80;;;1.70;;
60847;SDS011;46681;47.696;9.140;2023-05-07T01:11:14;2.60;;;1.83;;
60847;SDS011;46681;47.696;9.140;2023-05-07T01:16:16;1.70;;;1.60;;
60847;SDS011;46681;47.696;9.140;2023-05-07T01:18:42;1.83;;;1.73;;
60847;SDS011;46681;47.696;9.140;2023-05-07T01:21:07;1.73;;;1.63;;
60847;SDS011;46681;47.696;9.140;2023-05-07T01:23:43;2.27;;;2.07;;
60847;SDS011;46681;47.696;9.140;2023-05-07T01:26:09;2.00;;;1.83;;
60847;SDS011;46681;47.696;9.140;2023-05-07T01:28:34;1.87;;;1.77;;
60847;SDS011;46681;47.696;9.140;2023-05-07T01:31:03;1.80;;;1.70;;
60847;SDS011;46681;47.696;9.140;2023-05-07T01:33:33;2.30;;;1.80;;
60847;SDS011;46681;47.696;9.140;2023-05-07T01:36:00;2.83;;;1.83;;
60847;SDS011;46681;47.696;9.140;2023-05-07T01:38:30;1.90;;;1.80;;
60847;SDS011;46681;47.696;9.140;2023-05-07T01:40:59;2.10;;;1.83;;
60847;SDS011;46681;47.696;9.140;2023-05-07T01:43:29;3.23;;;2.03;;
60847;SDS011;46681;47.696;9.140;2023-05-07T01:45:58;1.80;;;1.70;;
60847;SDS011;46681;47.696;9.140;2023-05-07T01:48:28;3.10;;;1.80;;
60847;SDS011;46681;47.696;9.140;2023-05-07T01:50:54;1.70;;;1.60;;
60847;SDS011;46681;47.696;9.140;2023-05-07T01:53:23;1.83;;;1.73;;
60847;SDS011;46681;47.696;9.140;2023-05-07T01:55:50;2.83;;;2.10;;
60847;SDS011;46681;47.696;9.140;2023-05-07T01:58:16;2.07;;;1.60;;
60847;SDS011;46681;47.696;9.140;2023-05-07T02:00:44;4.53;;;2.10;;
60847;SDS011;46681;47.696;9.140;2023-05-07T02:03:12;2.00;;;1.90;;
60847;SDS011;46681;47.696;9.140;2023-05-07T02:08:16;2.10;;;1.70;;
60847;SDS011;46681;47.696;9.140;2023-05-07T02:10:51;2.57;;;1.90;;
60847;SDS011;46681;47.696;9.140;2023-05-07T02:13:19;2.43;;;1.80;;
60847;SDS011;46681;47.696;9.140;2023-05-07T02:15:45;2.23;;;2.03;;
60847;SDS011;46681;47.696;9.140;2023-05-07T02:18:15;1.73;;;1.63;;
60847;SDS011;46681;47.696;9.140;2023-05-07T02:20:45;2.83;;;1.90;;
60847;SDS011;46681;47.696;9.140;2023-05-07T02:23:11;1.73;;;1.63;;
60847;SDS011;46681;47.696;9.140;2023-05-07T02:25:38;2.40;;;1.70;;
60847;SDS011;46681;47.696;9.140;2023-05-07T02:28:04;1.90;;;1.80;;
60847;SDS011;46681;47.696;9.140;2023-05-07T02:30:29;1.63;;;1.63;;
60847;SDS011;46681;47.696;9.140;2023-05-07T02:32:55;1.87;;;1.70;;
60847;SDS011;46681;47.696;9.140;2023-05-07T02:35:20;2.03;;;1.93;;
60847;SDS011;46681;47.696;9.140;2023-05-07T02:37:46;3.13;;;1.97;;
60847;SDS011;46681;47.696;9.140;2023-05-07T02:40:14;2.53;;;2.33;;
60847;SDS011;46681;47.696;9.140;2023-05-07T02:42:49;2.10;;;2.00;;
60847;SDS011;46681;47.696;9.140;2023-05-07T02:45:17;3.23;;;2.13;;
60847;SDS011;46681;47.696;9.140;2023-05-07T02:47:52;2.00;;;1.50;;
60847;SDS011;46681;47.696;9.140;2023-05-07T02:50:38;2.10;;;1.90;;
60847;SDS011;46681;47.696;9.140;2023-05-07T02:53:13;1.90;;;1.80;;
60847;SDS011;46681;47.696;9.140;2023-05-07T02:55:45;2.00;;;1.90;;
60847;SDS011;46681;47.696;9.140;2023-05-07T02:58:10;2.13;;;1.83;;
60847;SDS011;46681;47.696;9.140;2023-05-07T03:00:45;2.70;;;1.90;;
60847;SDS011;46681;47.696;9.140;2023-05-07T03:03:10;2.17;;;1.97;;
60847;SDS011;46681;47.696;9.140;2023-05-07T03:05:39;1.80;;;1.70;;
60847;SDS011;46681;47.696;9.140;2023-05-07T03:08:06;2.53;;;1.97;;
60847;SDS011;46681;47.696;9.140;2023-05-07T03:10:55;1.90;;;1.80;;
60847;SDS011;46681;47.696;9.140;2023-05-07T03:13:31;2.37;;;2.07;;
60847;SDS011;46681;47.696;9.140;2023-05-07T03:15:59;2.30;;;2.10;;
60847;SDS011;46681;47.696;9.140;2023-05-07T03:18:43;2.30;;;1.70;;
60847;SDS011;46681;47.696;9.140;2023-05-07T03:21:21;2.27;;;2.07;;
60847;SDS011;46681;47.696;9.140;2023-05-07T03:23:59;3.40;;;1.83;;
60847;SDS011;46681;47.696;9.140;2023-05-07T03:26:40;2.17;;;2.00;;
60847;SDS011;46681;47.696;9.140;2023-05-07T03:29:08;2.17;;;2.03;;
60847;SDS011;46681;47.696;9.140;2023-05-07T03:31:46;2.17;;;2.07;;
60847;SDS011;46681;47.696;9.140;2023-05-07T03:34:17;2.10;;;2.00;;
60847;SDS011;46681;47.696;9.140;2023-05-07T03:36:42;2.90;;;1.87;;
60847;SDS011;46681;47.696;9.140;2023-05-07T03:39:14;2.60;;;2.10;;
60847;SDS011;46681;47.696;9.140;2023-05-07T03:41:52;2.10;;;2.00;;
60847;SDS011;46681;47.696;9.140;2023-05-07T03:44:25;2.20;;;2.10;;
60847;SDS011;46681;47.696;9.140;2023-05-07T03:47:13;2.80;;;2.10;;
60847;SDS011;46681;47.696;9.140;2023-05-07T03:49:43;2.20;;;2.10;;
60847;SDS011;46681;47.696;9.140;2023-05-07T03:52:11;2.20;;;2.10;;
60847;SDS011;46681;47.696;9.140;2023-05-07T03:54:47;1.90;;;1.80;;
60847;SDS011;46681;47.696;9.140;2023-05-07T03:57:30;2.00;;;1.90;;
60847;SDS011;46681;47.696;9.140;2023-05-07T04:00:02;2.70;;;2.20;;
60847;SDS011;46681;47.696;9.140;2023-05-07T04:02:48;1.93;;;1.80;;
60847;SDS011;46681;47.696;9.140;2023-05-07T04:05:23;2.00;;;1.90;;
60847;SDS011;46681;47.696;9.140;2023-05-07T04:07:51;2.17;;;2.07;;
60847;SDS011;46681;47.696;9.140;2023-05-07T04:10:16;2.40;;;2.10;;
60847;SDS011;46681;47.696;9.140;2023-05-07T04:12:51;1.90;;;1.80;;
60847;SDS011;46681;47.696;9.140;2023-05-07T04:15:17;2.13;;;2.03;;
60847;SDS011;46681;47.696;9.140;2023-05-07T04:17:45;2.00;;;1.80;;
60847;SDS011;46681;47.696;9.140;2023-05-07T04:20:13;1.77;;;1.67;;
60847;SDS011;46681;47.696;9.140;2023-05-07T04:22:42;2.17;;;2.07;;
60847;SDS011;46681;47.696;9.140;2023-05-07T04:25:13;2.17;;;2.03;;
60847;SDS011;46681;47.696;9.140;2023-05-07T04:27:41;2.20;;;2.10;;
60847;SDS011;46681;47.696;9.140;2023-05-07T04:30:18;2.20;;;2.10;;
60847;SDS011;46681;47.696;9.140;2023-05-07T04:32:49;2.00;;;1.90;;
60847;SDS011;46681;47.696;9.140;2023-05-07T04:35:39;2.57;;;2.27;;
60847;SDS011;46681;47.696;9.140;2023-05-07T04:38:04;2.10;;;2.00;;
60847;SDS011;46681;47.696;9.140;2023-05-07T04:40:32;2.20;;;2.10;;
60847;SDS011;46681;47.696;9.140;2023-05-07T04:42:57;2.03;;;1.93;;
60847;SDS011;46681;47.696;9.140;2023-05-07T04:45:23;1.70;;;1.60;;
60847;SDS011;46681;47.696;9.140;2023-05-07T04:47:54;2.80;;;2.23;;
60847;SDS011;46681;47.696;9.140;2023-05-07T04:50:23;3.00;;;1.80;;
60847;SDS011;46681;47.696;9.140;2023-05-07T04:52:54;2.13;;;1.93;;
60847;SDS011;46681;47.696;9.140;2023-05-07T04:55:22;2.17;;;2.00;;
60847;SDS011;46681;47.696;9.140;2023-05-07T04:57:48;2.03;;;1.93;;
60847;SDS011;46681;47.696;9.140;2023-05-07T05:00:17;2.10;;;2.00;;
60847;SDS011;46681;47.696;9.140;2023-05-07T05:02:47;2.00;;;1.80;;
60847;SDS011;46681;47.696;9.140;2023-05-07T05:05:13;5.13;;;2.40;;
60847;SDS011;46681;47.696;9.140;2023-05-07T05:07:41;2.40;;;2.13;;
60847;SDS011;46681;47.696;9.140;2023-05-07T05:10:15;1.87;;;1.77;;
60847;SDS011;46681;47.696;9.140;2023-05-07T05:12:41;3.10;;;2.27;;
60847;SDS011;46681;47.696;9.140;2023-05-07T05:15:11;3.33;;;2.20;;
60847;SDS011;46681;47.696;9.140;2023-05-07T05:20:30;2.40;;;2.20;;
60847;SDS011;46681;47.696;9.140;2023-05-07T05:22:59;2.13;;;2.00;;
60847;SDS011;46681;47.696;9.140;2023-05-07T05:25:24;2.93;;;2.23;;
60847;SDS011;46681;47.696;9.140;2023-05-07T05:27:49;1.93;;;1.87;;
60847;SDS011;46681;47.696;9.140;2023-05-07T05:30:26;2.37;;;2.20;;
60847;SDS011;46681;47.696;9.140;2023-05-07T05:32:54;2.77;;;2.10;;
60847;SDS011;46681;47.696;9.140;2023-05-07T05:35:29;5.93;;;2.10;;
60847;SDS011;46681;47.696;9.140;2023-05-07T05:37:59;2.27;;;2.10;;
60847;SDS011;46681;47.696;9.140;2023-05-07T05:40:25;2.30;;;2.20;;
60847;SDS011;46681;47.696;9.140;2023-05-07T05:43:14;2.03;;;1.93;;
60847;SDS011;46681;47.696;9.140;2023-05-07T05:45:42;2.43;;;2.23;;
60847;SDS011;46681;47.696;9.140;2023-05-07T05:48:10;2.00;;;1.90;;
60847;SDS011;46681;47.696;9.140;2023-05-07T05:50:41;2.53;;;2.10;;
60847;SDS011;46681;47.696;9.140;2023-05-07T05:53:12;2.37;;;2.27;;
60847;SDS011;46681;47.696;9.140;2023-05-07T05:58:30;2.27;;;2.17;;
60847;SDS011;46681;47.696;9.140;2023-05-07T06:00:58;3.50;;;2.40;;
60847;SDS011;46681;47.696;9.140;2023-05-07T06:03:24;2.63;;;2.43;;
60847;SDS011;46681;47.696;9.140;2023-05-07T06:05:50;2.80;;;2.60;;
60847;SDS011;46681;47.696;9.140;2023-05-07T06:08:15;2.47;;;2.13;;
60847;SDS011;46681;47.696;9.140;2023-05-07T06:10:55;2.70;;;2.50;;
60847;SDS011;46681;47.696;9.140;2023-05-07T06:13:24;2.63;;;2.43;;
60847;SDS011;46681;47.696;9.140;2023-05-07T06:15:54;2.67;;;2.40;;
60847;SDS011;46681;47.696;9.140;2023-05-07T06:18:22;2.80;;;2.50;;
60847;SDS011;46681;47.696;9.140;2023-05-07T06:23:46;2.87;;;2.67;;
60847;SDS011;46681;47.696;9.140;2023-05-07T06:26:15;4.70;;;3.33;;
60847;SDS011;46681;47.696;9.140;2023-05-07T06:28:50;3.77;;;3.20;;
60847;SDS011;46681;47.696;9.140;2023-05-07T06:31:34;3.80;;;3.47;;
60847;SDS011;46681;47.696;9.140;2023-05-07T06:34:02;3.37;;;2.83;;
60847;SDS011;46681;47.696;9.140;2023-05-07T06:36:30;4.23;;;3.73;;
60847;SDS011;46681;47.696;9.140;2023-05-07T06:38:58;4.53;;;3.33;;
60847;SDS011;46681;47.696;9.140;2023-05-07T06:41:24;9.80;;;4.90;;
60847;SDS011;46681;47.696;9.140;2023-05-07T06:43:52;8.00;;;4.80;;
60847;SDS011;46681;47.696;9.140;2023-05-07T06:46:20;10.20;;;5.40;;
60847;SDS011;46681;47.696;9.140;2023-05-07T06:48:50;11.87;;;5.27;;
60847;SDS011;46681;47.696;9.140;2023-05-07T06:51:17;9.50;;;5.53;;
60847;SDS011;46681;47.696;9.140;2023-05-07T06:53:45;9.67;;;5.33;;
60847;SDS011;46681;47.696;9.140;2023-05-07T06:56:13;13.07;;;5.27;;
60847;SDS011;46681;47.696;9.140;2023-05-07T06:58:43;11.23;;;5.30;;
60847;SDS011;46681;47.696;9.140;2023-05-07T07:01:16;10.47;;;5.30;;
60847;SDS011;46681;47.696;9.140;2023-05-07T07:03:57;8.67;;;4.77;;
60847;SDS011;46681;47.696;9.140;2023-05-07T07:06:30;10.07;;;4.83;;
60847;SDS011;46681;47.696;9.140;2023-05-07T07:08:59;7.90;;;4.70;;
60847;SDS011;46681;47.696;9.140;2023-05-07T07:11:28;6.90;;;4.87;;
60847;SDS011;46681;47.696;9.140;2023-05-07T07:13:57;8.23;;;4.33;;
60847;SDS011;46681;47.696;9.140;2023-05-07T07:16:33;10.00;;;4.73;;
60847;SDS011;46681;47.696;9.140;2023-05-07T07:19:02;7.23;;;4.90;;
60847;SDS011;46681;47.696;9.140;2023-05-07T07:21:51;10.37;;;4.47;;
60847;SDS011;46681;47.696;9.140;2023-05-07T07:24:19;8.27;;;4.43;;
60847;SDS011;46681;47.696;9.140;2023-05-07T07:27:09;7.73;;;4.50;;
60847;SDS011;46681;47.696;9.140;2023-05-07T07:29:41;8.53;;;4.30;;
60847;SDS011;46681;47.696;9.140;2023-05-07T07:35:29;6.40;;;4.40;;
60847;SDS011;46681;47.696;9.140;2023-05-07T07:37:58;4.73;;;4.00;;
60847;SDS011;46681;47.696;9.140;2023-05-07T07:40:27;11.90;;;4.33;;
60847;SDS011;46681;47.696;9.140;2023-05-07T07:43:05;7.40;;;3.97;;
60847;SDS011;46681;47.696;9.140;2023-05-07T07:45:48;7.60;;;4.10;;
60847;SDS011;46681;47.696;9.140;2023-05-07T07:48:14;7.37;;;4.37;;
60847;SDS011;46681;47.696;9.140;2023-05-07T07:53:38;7.90;;;4.17;;
60847;SDS011;46681;47.696;9.140;2023-05-07T07:56:09;5.43;;;3.60;;
60847;SDS011;46681;47.696;9.140;2023-05-07T07:58:44;6.83;;;3.90;;
60847;SDS011;46681;47.696;9.140;2023-05-07T08:01:17;5.70;;;3.80;;
60847;SDS011;46681;47.696;9.140;2023-05-07T08:03:51;5.77;;;3.77;;
60847;SDS011;46681;47.696;9.140;2023-05-07T08:06:18;10.87;;;3.90;;
60847;SDS011;46681;47.696;9.140;2023-05-07T08:08:54;7.07;;;4.20;;
60847;SDS011;46681;47.696;9.140;2023-05-07T08:11:27;5.30;;;4.20;;
60847;SDS011;46681;47.696;9.140;2023-05-07T08:13:55;4.43;;;3.90;;
60847;SDS011;46681;47.696;9.140;2023-05-07T08:19:13;6.33;;;4.07;;
60847;SDS011;46681;47.696;9.140;2023-05-07T08:21:46;4.73;;;4.17;;
60847;SDS011;46681;47.696;9.140;2023-05-07T08:24:18;4.70;;;4.20;;
60847;SDS011;46681;47.696;9.140;2023-05-07T08:26:55;7.17;;;4.13;;
60847;SDS011;46681;47.696;9.140;2023-05-07T08:29:38;7.30;;;4.00;;
60847;SDS011;46681;47.696;9.140;2023-05-07T08:32:04;8.23;;;3.53;;
60847;SDS011;46681;47.696;9.140;2023-05-07T08:34:43;5.13;;;3.60;;
60847;SDS011;46681;47.696;9.140;2023-05-07T08:37:20;7.83;;;3.47;;
60847;SDS011;46681;47.696;9.140;2023-05-07T08:39:48;5.10;;;3.50;;
60847;SDS011;46681;47.696;9.140;2023-05-07T08:42:24;5.43;;;3.40;;
60847;SDS011;46681;47.696;9.140;2023-05-07T08:45:29;5.93;;;3.47;;
60847;SDS011;46681;47.696;9.140;2023-05-07T08:48:08;5.10;;;4.33;;
60847;SDS011;46681;47.696;9.140;2023-05-07T08:51:03;5.10;;;4.13;;
60847;SDS011;46681;47.696;9.140;2023-05-07T08:54:02;7.40;;;4.53;;
60847;SDS011;46681;47.696;9.140;2023-05-07T08:56:44;6.93;;;3.80;;
60847;SDS011;46681;47.696;9.140;2023-05-07T08:59:32;4.30;;;3.90;;
60847;SDS011;46681;47.696;9.140;2023-05-07T09:02:09;5.67;;;4.10;;
60847;SDS011;46681;47.696;9.140;2023-05-07T09:04:39;5.23;;;4.50;;
60847;SDS011;46681;47.696;9.140;2023-05-07T09:07:09;8.90;;;4.47;;
60847;SDS011;46681;47.696;9.140;2023-05-07T09:10:11;3.90;;;3.50;;
60847;SDS011;46681;47.696;9.140;2023-05-07T09:12:58;4.00;;;3.67;;
60847;SDS011;46681;47.696;9.140;2023-05-07T09:15:28;7.37;;;4.50;;
60847;SDS011;46681;47.696;9.140;2023-05-07T09:18:14;5.27;;;3.40;;
60847;SDS011;46681;47.696;9.140;2023-05-07T09:20:57;13.07;;;4.80;;
60847;SDS011;46681;47.696;9.140;2023-05-07T09:23:47;14.17;;;5.77;;
60847;SDS011;46681;47.696;9.140;2023-05-07T09:26:29;12.80;;;5.13;;
60847;SDS011;46681;47.696;9.140;2023-05-07T09:29:28;11.93;;;5.10;;
60847;SDS011;46681;47.696;9.140;2023-05-07T09:32:17;11.20;;;5.30;;
60847;SDS011;46681;47.696;9.140;2023-05-07T09:35:21;9.93;;;4.97;;
60847;SDS011;46681;47.696;9.140;2023-05-07T09:38:01;9.57;;;4.63;;
60847;SDS011;46681;47.696;9.140;2023-05-07T09:41:13;13.00;;;5.33;;
60847;SDS011;46681;47.696;9.140;2023-05-07T09:43:47;12.33;;;4.53;;
60847;SDS011;46681;47.696;9.140;2023-05-07T09:46:51;7.10;;;4.53;;
60847;SDS011;46681;47.696;9.140;2023-05-07T09:53:10;9.67;;;4.17;;
60847;SDS011;46681;47.696;9.140;2023-05-07T10:02:26;8.33;;;4.30;;
60847;SDS011;46681;47.696;9.140;2023-05-07T10:05:10;6.07;;;4.00;;
60847;SDS011;46681;47.696;9.140;2023-05-07T10:08:21;7.80;;;4.30;;
60847;SDS011;46681;47.696;9.140;2023-05-07T10:11:23;8.57;;;4.23;;
60847;SDS011;46681;47.696;9.140;2023-05-07T10:14:38;7.30;;;4.07;;
60847;SDS011;46681;47.696;9.140;2023-05-07T10:17:29;7.00;;;3.97;;
60847;SDS011;46681;47.696;9.140;2023-05-07T10:32:56;8.00;;;4.17;;
60847;SDS011;46681;47.696;9.140;2023-05-07T10:45:25;5.97;;;3.40;;
60847;SDS011;46681;47.696;9.140;2023-05-07T10:51:27;4.90;;;3.77;;
60847;SDS011;46681;47.696;9.140;2023-05-07T11:01:03;5.07;;;3.33;;
60847;SDS011;46681;47.696;9.140;2023-05-07T11:07:39;3.50;;;3.00;;
60847;SDS011;46681;47.696;9.140;2023-05-07T11:14:09;5.00;;;3.40;;
60847;SDS011;46681;47.696;9.140;2023-05-07T11:17:15;4.70;;;3.40;;
60847;SDS011;46681;47.696;9.140;2023-05-07T11:32:46;3.80;;;2.90;;
60847;SDS011;46681;47.696;9.140;2023-05-07T11:48:26;3.83;;;2.53;;
60847;SDS011;46681;47.696;9.140;2023-05-07T11:54:25;3.93;;;3.00;;
60847;SDS011;46681;47.696;9.140;2023-05-07T11:57:29;5.27;;;2.73;;
60847;SDS011;46681;47.696;9.140;2023-05-07T12:12:48;4.90;;;2.83;;
60847;SDS011;46681;47.696;9.140;2023-05-07T12:15:36;3.50;;;2.70;;
60847;SDS011;46681;47.696;9.140;2023-05-07T12:25:03;2.50;;;1.90;;
60847;SDS011;46681;47.696;9.140;2023-05-07T12:30:53;3.77;;;2.60;;
60847;SDS011;46681;47.696;9.140;2023-05-07T12:33:43;2.90;;;2.60;;
60847;SDS011;46681;47.696;9.140;2023-05-07T12:39:34;4.20;;;2.53;;
60847;SDS011;46681;47.696;9.140;2023-05-07T12:42:37;3.33;;;2.43;;
60847;SDS011;46681;47.696;9.140;2023-05-07T12:45:50;4.70;;;2.90;;
60847;SDS011;46681;47.696;9.140;2023-05-07T12:52:33;4.27;;;2.97;;
60847;SDS011;46681;47.696;9.140;2023-05-07T12:58:48;3.43;;;3.13;;
60847;SDS011;46681;47.696;9.140;2023-05-07T13:01:44;5.10;;;2.63;;
60847;SDS011;46681;47.696;9.140;2023-05-07T13:04:59;13.23;;;2.93;;
60847;SDS011;46681;47.696;9.140;2023-05-07T13:07:54;14.47;;;3.30;;
60847;SDS011;46681;47.696;9.140;2023-05-07T13:10:46;14.03;;;3.87;;
60847;SDS011;46681;47.696;9.140;2023-05-07T13:13:53;8.33;;;2.80;;
60847;SDS011;46681;47.696;9.140;2023-05-07T13:16:40;2.90;;;2.20;;
60847;SDS011;46681;47.696;9.140;2023-05-07T13:19:29;4.67;;;2.40;;
60847;SDS011;46681;47.696;9.140;2023-05-07T13:25:34;2.00;;;1.80;;
60847;SDS011;46681;47.696;9.140;2023-05-07T13:28:19;2.20;;;2.00;;
60847;SDS011;46681;47.696;9.140;2023-05-07T13:31:16;2.00;;;1.80;;
60847;SDS011;46681;47.696;9.140;2023-05-07T13:34:06;2.33;;;2.10;;
60847;SDS011;46681;47.696;9.140;2023-05-07T13:36:40;5.53;;;2.10;;
60847;SDS011;46681;47.696;9.140;2023-05-07T13:39:41;2.43;;;2.00;;
60847;SDS011;46681;47.696;9.140;2023-05-07T13:42:40;2.83;;;2.30;;
60847;SDS011;46681;47.696;9.140;2023-05-07T13:45:17;21.97;;;3.47;;
60847;SDS011;46681;47.696;9.140;2023-05-07T13:51:11;6.70;;;2.40;;
60847;SDS011;46681;47.696;9.140;2023-05-07T13:56:31;5.60;;;2.17;;
60847;SDS011;46681;47.696;9.140;2023-05-07T14:02:10;12.73;;;2.80;;
60847;SDS011;46681;47.696;9.140;2023-05-07T14:05:14;4.87;;;2.77;;
60847;SDS011;46681;47.696;9.140;2023-05-07T14:07:58;3.97;;;2.30;;
60847;SDS011;46681;47.696;9.140;2023-05-07T14:10:53;4.53;;;2.07;;
60847;SDS011;46681;47.696;9.140;2023-05-07T14:13:37;5.07;;;2.77;;
60847;SDS011;46681;47.696;9.140;2023-05-07T14:16:18;3.83;;;2.20;;
60847;SDS011;46681;47.696;9.140;2023-05-07T14:18:55;2.40;;;1.87;;
60847;SDS011;46681;47.696;9.140;2023-05-07T14:21:25;3.97;;;1.93;;
60847;SDS011;46681;47.696;9.140;2023-05-07T14:23:58;1.40;;;1.30;;
60847;SDS011;46681;47.696;9.140;2023-05-07T14:32:55;3.67;;;1.43;;
60847;SDS011;46681;47.696;9.140;2023-05-07T14:35:54;1.60;;;1.30;;
60847;SDS011;46681;47.696;9.140;2023-05-07T14:39:00;1.37;;;1.27;;
60847;SDS011;46681;47.696;9.140;2023-05-07T14:42:07;2.83;;;1.43;;
60847;SDS011;46681;47.696;9.140;2023-05-07T14:47:55;3.77;;;1.40;;
60847;SDS011;46681;47.696;9.140;2023-05-07T14:51:03;5.30;;;1.70;;
60847;SDS011;46681;47.696;9.140;2023-05-07T14:54:05;1.60;;;1.50;;
60847;SDS011;46681;47.696;9.140;2023-05-07T15:03:35;4.10;;;1.40;;
60847;SDS011;46681;47.696;9.140;2023-05-07T15:06:05;3.67;;;1.20;;
60847;SDS011;46681;47.696;9.140;2023-05-07T15:08:46;1.70;;;1.07;;
60847;SDS011;46681;47.696;9.140;2023-05-07T15:11:30;1.53;;;1.20;;
60847;SDS011;46681;47.696;9.140;2023-05-07T15:13:56;4.63;;;1.10;;
60847;SDS011;46681;47.696;9.140;2023-05-07T15:16:35;2.30;;;1.20;;
60847;SDS011;46681;47.696;9.140;2023-05-07T15:19:16;1.40;;;1.30;;
60847;SDS011;46681;47.696;9.140;2023-05-07T15:24:40;3.87;;;1.40;;
60847;SDS011;46681;47.696;9.140;2023-05-07T15:27:16;2.40;;;1.30;;
60847;SDS011;46681;47.696;9.140;2023-05-07T15:29:43;2.13;;;1.13;;
60847;SDS011;46681;47.696;9.140;2023-05-07T15:32:22;3.87;;;1.60;;
60847;SDS011;46681;47.696;9.140;2023-05-07T15:34:55;2.57;;;1.47;;
60847;SDS011;46681;47.696;9.140;2023-05-07T15:37:32;1.50;;;1.40;;
60847;SDS011;46681;47.696;9.140;2023-05-07T15:40:11;1.60;;;1.50;;
60847;SDS011;46681;47.696;9.140;2023-05-07T15:43:00;1.93;;;1.70;;
60847;SDS011;46681;47.696;9.140;2023-05-07T15:45:31;1.90;;;1.53;;
60847;SDS011;46681;47.696;9.140;2023-05-07T15:48:09;2.07;;;1.47;;
60847;SDS011;46681;47.696;9.140;2023-05-07T15:50:43;4.57;;;1.80;;
60847;SDS011;46681;47.696;9.140;2023-05-07T15:53:27;1.70;;;1.60;;
60847;SDS011;46681;47.696;9.140;2023-05-07T15:56:07;1.97;;;1.50;;
60847;SDS011;46681;47.696;9.140;2023-05-07T16:01:31;2.40;;;1.60;;
60847;SDS011;46681;47.696;9.140;2023-05-07T16:04:07;2.23;;;1.47;;
60847;SDS011;46681;47.696;9.140;2023-05-07T16:06:49;1.97;;;1.63;;
60847;SDS011;46681;47.696;9.140;2023-05-07T16:09:27;2.43;;;1.30;;
60847;SDS011;46681;47.696;9.140;2023-05-07T16:12:02;1.73;;;1.63;;
60847;SDS011;46681;47.696;9.140;2023-05-07T16:14:29;3.80;;;1.40;;
60847;SDS011;46681;47.696;9.140;2023-05-07T16:17:08;3.03;;;1.40;;
60847;SDS011;46681;47.696;9.140;2023-05-07T16:19:39;3.27;;;1.73;;
60847;SDS011;46681;47.696;9.140;2023-05-07T16:22:32;5.20;;;1.97;;
60847;SDS011;46681;47.696;9.140;2023-05-07T16:25:02;11.90;;;2.00;;
60847;SDS011;46681;47.696;9.140;2023-05-07T16:27:40;2.23;;;1.53;;
60847;SDS011;46681;47.696;9.140;2023-05-07T16:30:16;2.80;;;1.70;;
60847;SDS011;46681;47.696;9.140;2023-05-07T16:32:44;4.80;;;1.70;;
60847;SDS011;46681;47.696;9.140;2023-05-07T16:35:09;2.10;;;1.60;;
60847;SDS011;46681;47.696;9.140;2023-05-07T16:37:36;4.77;;;1.77;;
60847;SDS011;46681;47.696;9.140;2023-05-07T16:40:08;4.97;;;1.63;;
60847;SDS011;46681;47.696;9.140;2023-05-07T16:42:44;4.47;;;1.60;;
60847;SDS011;46681;47.696;9.140;2023-05-07T16:45:15;2.57;;;1.60;;
60847;SDS011;46681;47.696;9.140;2023-05-07T16:47:45;1.83;;;1.50;;
60847;SDS011;46681;47.696;9.140;2023-05-07T16:50:15;3.50;;;1.43;;
60847;SDS011;46681;47.696;9.140;2023-05-07T16:52:50;11.80;;;1.70;;
60847;SDS011;46681;47.696;9.140;2023-05-07T16:55:25;1.77;;;1.67;;
60847;SDS011;46681;47.696;9.140;2023-05-07T16:58:05;2.43;;;1.67;;
60847;SDS011;46681;47.696;9.140;2023-05-07T17:00:34;2.17;;;1.57;;
60847;SDS011;46681;47.696;9.140;2023-05-07T17:03:02;5.80;;;1.70;;
60847;SDS011;46681;47.696;9.140;2023-05-07T17:05:35;2.47;;;1.77;;
60847;SDS011;46681;47.696;9.140;2023-05-07T17:08:01;1.37;;;1.23;;
60847;SDS011;46681;47.696;9.140;2023-05-07T17:10:28;2.07;;;1.70;;
60847;SDS011;46681;47.696;9.140;2023-05-07T17:12:59;3.33;;;1.50;;
60847;SDS011;46681;47.696;9.140;2023-05-07T17:15:27;3.57;;;2.07;;
60847;SDS011;46681;47.696;9.140;2023-05-07T17:17:56;1.67;;;1.57;;
60847;SDS011;46681;47.696;9.140;2023-05-07T17:20:22;1.97;;;1.67;;
60847;SDS011;46681;47.696;9.140;2023-05-07T17:22:55;1.70;;;1.60;;
60847;SDS011;46681;47.696;9.140;2023-05-07T17:25:22;4.23;;;1.83;;
60847;SDS011;46681;47.696;9.140;2023-05-07T17:27:52;1.60;;;1.40;;
60847;SDS011;46681;47.696;9.140;2023-05-07T17:30:28;2.03;;;1.80;;
60847;SDS011;46681;47.696;9.140;2023-05-07T17:33:09;2.90;;;1.80;;
60847;SDS011;46681;47.696;9.140;2023-05-07T17:36:02;1.97;;;1.57;;
60847;SDS011;46681;47.696;9.140;2023-05-07T17:38:37;1.60;;;1.50;;
60847;SDS011;46681;47.696;9.140;2023-05-07T17:41:08;2.00;;;1.57;;
60847;SDS011;46681;47.696;9.140;2023-05-07T17:43:39;2.37;;;1.50;;
60847;SDS011;46681;47.696;9.140;2023-05-07T17:46:14;5.17;;;1.80;;
60847;SDS011;46681;47.696;9.140;2023-05-07T17:48:45;3.03;;;1.70;;
60847;SDS011;46681;47.696;9.140;2023-05-07T17:51:14;3.60;;;1.73;;
60847;SDS011;46681;47.696;9.140;2023-05-07T17:53:42;4.43;;;1.90;;
60847;SDS011;46681;47.696;9.140;2023-05-07T17:56:07;5.00;;;1.87;;
60847;SDS011;46681;47.696;9.140;2023-05-07T17:58:37;2.07;;;1.40;;
60847;SDS011;46681;47.696;9.140;2023-05-07T18:01:05;3.63;;;1.80;;
60847;SDS011;46681;47.696;9.140;2023-05-07T18:03:48;1.70;;;1.53;;
60847;SDS011;46681;47.696;9.140;2023-05-07T18:06:29;6.17;;;2.20;;
60847;SDS011;46681;47.696;9.140;2023-05-07T18:08:57;5.13;;;2.00;;
60847;SDS011;46681;47.696;9.140;2023-05-07T18:11:34;6.80;;;2.73;;
60847;SDS011;46681;47.696;9.140;2023-05-07T18:14:11;8.57;;;2.23;;
60847;SDS011;46681;47.696;9.140;2023-05-07T18:16:42;4.53;;;2.57;;
60847;SDS011;46681;47.696;9.140;2023-05-07T18:19:15;3.90;;;2.00;;
60847;SDS011;46681;47.696;9.140;2023-05-07T18:21:46;8.73;;;2.20;;
60847;SDS011;46681;47.696;9.140;2023-05-07T18:24:16;7.23;;;2.10;;
60847;SDS011;46681;47.696;9.140;2023-05-07T18:26:46;4.70;;;2.00;;
60847;SDS011;46681;47.696;9.140;2023-05-07T18:29:12;4.10;;;2.30;;